createdAt,value
2018-06-01T00:00:12.231Z,0.00
2018-06-01T00:01:12.090Z,0.00
2018-06-01T00:02:12.116Z,0.00
2018-06-01T00:03:11.942Z,0.00
2018-06-01T00:04:11.950Z,0.00
2018-06-01T00:05:11.840Z,0.00
2018-06-01T00:06:11.833Z,0.00
2018-06-01T00:07:11.640Z,0.00
2018-06-01T00:08:11.647Z,0.00
2018-06-01T00:09:11.484Z,0.00
2018-06-01T00:10:12.499Z,0.00
2018-06-01T00:11:11.346Z,0.00
2018-06-01T00:12:11.376Z,0.00
2018-06-01T00:13:11.171Z,0.00
2018-06-01T00:14:11.180Z,0.00
2018-06-01T00:15:11.046Z,0.00
2018-06-01T00:16:10.975Z,0.00
2018-06-01T00:17:10.875Z,0.00
2018-06-01T00:18:10.888Z,0.00
2018-06-01T00:19:10.737Z,0.00
2018-06-01T00:20:11.760Z,0.00
2018-06-01T00:21:10.580Z,0.00
2018-06-01T00:22:10.609Z,0.00
2018-06-01T00:23:10.408Z,0.00
2018-06-01T00:24:10.416Z,0.00
2018-06-01T00:25:10.291Z,0.00
2018-06-01T00:26:11.287Z,0.00
2018-06-01T00:27:10.111Z,0.00
2018-06-01T00:28:10.135Z,0.00
2018-06-01T00:29:09.963Z,0.00
2018-06-01T00:30:09.960Z,0.00
2018-06-01T00:31:09.810Z,0.00
2018-06-01T00:33:51.713Z,0.00
2018-06-01T00:34:51.751Z,0.00
2018-06-01T00:35:51.612Z,0.00
2018-06-01T00:36:51.599Z,0.00
2018-06-01T00:37:51.421Z,0.00
2018-06-01T00:40:33.726Z,0.00
2018-06-01T00:41:33.673Z,0.00
2018-06-01T00:42:33.600Z,0.00
2018-06-01T00:43:33.582Z,0.00
2018-06-01T00:44:33.412Z,0.00
2018-06-01T00:45:33.387Z,0.00
2018-06-01T00:46:33.262Z,0.00
2018-06-01T00:47:33.245Z,0.00
2018-06-01T00:48:33.103Z,0.00
2018-06-01T00:49:33.114Z,0.00
2018-06-01T00:50:32.963Z,0.00
2018-06-01T00:53:15.244Z,0.00
2018-06-01T00:54:15.225Z,0.00
2018-06-01T00:55:15.068Z,0.00
2018-06-01T00:56:15.038Z,0.00
2018-06-01T00:57:14.970Z,0.00
2018-06-01T00:58:14.953Z,0.00
2018-06-01T00:59:14.758Z,0.00
2018-06-01T01:00:14.753Z,0.00
2018-06-01T01:01:14.611Z,0.00
2018-06-01T01:02:14.610Z,0.00
2018-06-01T01:03:14.460Z,0.00
2018-06-01T01:04:14.472Z,0.00
2018-06-01T01:05:14.301Z,0.00
2018-06-01T01:06:14.288Z,0.00
2018-06-01T01:07:14.152Z,0.00
2018-06-01T01:08:15.162Z,0.00
2018-06-01T01:09:13.996Z,0.00
2018-06-01T01:10:14.005Z,0.00
2018-06-01T01:11:13.854Z,0.00
2018-06-01T01:12:13.810Z,0.00
2018-06-01T01:13:13.704Z,0.00
2018-06-01T01:14:13.719Z,0.00
2018-06-01T01:15:13.535Z,0.00
2018-06-01T01:17:55.771Z,0.00
2018-06-01T01:20:37.736Z,0.00
2018-06-01T01:23:19.795Z,0.00
2018-06-01T01:26:01.729Z,0.00
2018-06-01T01:27:01.730Z,0.00
2018-06-01T01:28:01.579Z,0.00
2018-06-01T01:29:01.612Z,0.00
2018-06-01T01:30:01.432Z,0.00
2018-06-01T01:32:43.734Z,0.00
2018-06-01T01:35:25.760Z,0.00
2018-06-01T01:36:25.753Z,0.00
2018-06-01T01:37:25.581Z,0.00
2018-06-01T01:38:25.554Z,0.00
2018-06-01T01:39:25.467Z,0.00
2018-06-01T01:40:25.474Z,0.00
2018-06-01T01:41:25.316Z,0.00
2018-06-01T01:42:25.272Z,0.00
2018-06-01T01:43:25.114Z,0.00
2018-06-01T01:44:25.121Z,0.00
2018-06-01T01:45:24.980Z,0.00
2018-06-01T01:46:24.986Z,0.00
2018-06-01T01:47:24.809Z,0.00
2018-06-01T01:48:24.801Z,0.00
2018-06-01T01:49:24.677Z,0.00
2018-06-01T01:50:24.717Z,0.00
2018-06-01T01:51:24.505Z,0.00
2018-06-01T01:52:24.529Z,0.00
2018-06-01T01:53:24.348Z,0.00
2018-06-01T01:54:24.396Z,0.00
2018-06-01T01:55:24.219Z,0.00
2018-06-01T01:56:24.235Z,0.00
2018-06-01T01:57:24.044Z,0.00
2018-06-01T01:58:24.046Z,0.00
2018-06-01T01:59:23.900Z,0.00
2018-06-01T02:00:23.853Z,0.00
2018-06-01T02:01:23.762Z,0.00
2018-06-01T02:02:23.765Z,0.00
2018-06-01T02:03:23.593Z,0.00
2018-06-01T02:04:23.570Z,0.00
2018-06-01T02:05:23.465Z,0.00
2018-06-01T02:08:05.241Z,0.00
2018-06-01T02:10:47.266Z,0.00
2018-06-01T02:11:47.270Z,0.00
2018-06-01T02:12:47.096Z,0.00
2018-06-01T02:15:29.247Z,0.00
2018-06-01T02:16:29.317Z,0.00
2018-06-01T02:17:29.131Z,0.00
2018-06-01T02:18:29.102Z,0.00
2018-06-01T02:19:28.945Z,0.00
2018-06-01T02:20:28.900Z,0.00
2018-06-01T02:21:28.792Z,0.00
2018-06-01T02:22:28.842Z,0.00
2018-06-01T02:23:28.635Z,0.00
2018-06-01T02:24:28.619Z,0.00
2018-06-01T02:25:28.483Z,0.00
2018-06-01T02:26:28.467Z,0.00
2018-06-01T02:27:28.331Z,0.00
2018-06-01T02:28:28.336Z,0.00
2018-06-01T02:29:28.200Z,0.00
2018-06-01T02:30:28.142Z,0.00
2018-06-01T02:31:28.018Z,0.00
2018-06-01T02:32:28.064Z,0.00
2018-06-01T02:33:27.906Z,0.00
2018-06-01T02:34:27.902Z,0.00
2018-06-01T02:35:27.712Z,0.00
2018-06-01T02:36:27.684Z,0.00
2018-06-01T02:37:27.563Z,0.00
2018-06-01T02:38:28.553Z,0.00
2018-06-01T02:39:27.410Z,0.00
2018-06-01T02:40:27.400Z,0.00
2018-06-01T02:41:27.260Z,0.00
2018-06-01T02:42:27.199Z,0.00
2018-06-01T02:43:27.175Z,0.00
2018-06-01T02:44:27.117Z,0.00
2018-06-01T02:45:26.936Z,0.00
2018-06-01T02:46:26.919Z,0.00
2018-06-01T02:47:26.794Z,4.00
2018-06-01T02:48:26.873Z,0.00
2018-06-01T02:49:26.630Z,0.00
2018-06-01T02:50:26.636Z,0.00
2018-06-01T02:51:26.536Z,0.00
2018-06-01T02:52:26.450Z,0.00
2018-06-01T02:53:26.327Z,4.00
2018-06-01T02:54:26.359Z,0.00
2018-06-01T02:55:26.209Z,0.00
2018-06-01T02:56:26.169Z,4.00
2018-06-01T02:57:26.027Z,4.00
2018-06-01T02:58:25.976Z,0.00
2018-06-01T02:59:25.887Z,4.00
2018-06-01T03:00:25.892Z,4.00
2018-06-01T03:01:25.733Z,4.00
2018-06-01T03:04:07.765Z,4.00
2018-06-01T03:05:07.808Z,4.00
2018-06-01T03:06:07.626Z,8.00
2018-06-01T03:07:07.603Z,8.00
2018-06-01T03:08:07.492Z,8.00
2018-06-01T03:09:07.414Z,8.00
2018-06-01T03:10:07.306Z,12.00
2018-06-01T03:11:07.349Z,12.00
2018-06-01T03:12:07.150Z,12.00
2018-06-01T03:14:49.269Z,16.00
2018-06-01T03:17:31.289Z,24.00
2018-06-01T03:18:31.272Z,24.00
2018-06-01T03:19:31.126Z,24.00
2018-06-01T03:20:31.133Z,28.00
2018-06-01T03:21:31.018Z,28.00
2018-06-01T03:22:30.945Z,32.00
2018-06-01T03:23:30.821Z,40.00
2018-06-01T03:24:30.774Z,48.00
2018-06-01T03:25:30.648Z,52.00
2018-06-01T03:28:12.813Z,112.00
2018-06-01T03:29:12.797Z,140.00
2018-06-01T03:30:12.612Z,156.00
2018-06-01T03:31:12.575Z,156.00
2018-06-01T03:32:12.471Z,152.00
2018-06-01T03:33:12.486Z,144.00
2018-06-01T03:34:12.343Z,144.00
2018-06-01T03:35:12.293Z,140.00
2018-06-01T03:36:12.153Z,136.00
2018-06-01T03:37:12.105Z,132.00
2018-06-01T03:38:11.997Z,128.00
2018-06-01T03:39:12.062Z,124.00
2018-06-01T03:40:11.837Z,120.00
2018-06-01T03:41:11.822Z,120.00
2018-06-01T03:42:11.689Z,116.00
2018-06-01T03:43:12.694Z,116.00
2018-06-01T03:44:11.533Z,112.00
2018-06-01T03:46:53.781Z,104.00
2018-06-01T03:47:53.809Z,108.00
2018-06-01T03:48:53.702Z,108.00
2018-06-01T03:51:35.775Z,116.00
2018-06-01T03:52:35.752Z,116.00
2018-06-01T03:53:35.657Z,116.00
2018-06-01T03:54:35.669Z,120.00
2018-06-01T03:55:35.471Z,120.00
2018-06-01T03:56:35.475Z,120.00
2018-06-01T03:57:35.328Z,120.00
2018-06-01T03:58:36.350Z,120.00
2018-06-01T03:59:35.187Z,120.00
2018-06-01T04:00:35.401Z,112.00
2018-06-01T04:01:35.004Z,108.00
2018-06-01T04:02:35.004Z,100.00
2018-06-01T04:03:34.855Z,96.00
2018-06-01T04:04:35.865Z,92.00
2018-06-01T04:05:34.701Z,92.00
2018-06-01T04:08:16.787Z,84.00
2018-06-01T04:10:58.854Z,76.00
2018-06-01T04:11:58.818Z,80.00
2018-06-01T04:12:58.637Z,84.00
2018-06-01T04:13:58.631Z,88.00
2018-06-01T04:14:58.494Z,88.00
2018-06-01T04:15:58.566Z,92.00
2018-06-01T04:16:58.335Z,88.00
2018-06-01T04:17:58.355Z,88.00
2018-06-01T04:18:58.170Z,92.00
2018-06-01T04:19:58.166Z,92.00
2018-06-01T04:20:58.030Z,84.00
2018-06-01T04:21:57.964Z,72.00
2018-06-01T04:22:57.872Z,64.00
2018-06-01T04:25:39.789Z,56.00
2018-06-01T04:26:39.819Z,52.00
2018-06-01T04:27:39.693Z,52.00
2018-06-01T04:28:39.683Z,44.00
2018-06-01T04:29:39.482Z,40.00
2018-06-01T04:32:21.834Z,32.00
2018-06-01T04:33:21.801Z,32.00
2018-06-01T04:34:21.644Z,32.00
2018-06-01T04:37:03.819Z,28.00
2018-06-01T04:39:45.799Z,40.00
2018-06-01T04:40:50.629Z,48.00
2018-06-01T04:41:45.664Z,56.00
2018-06-01T04:42:45.626Z,68.00
2018-06-01T04:43:45.491Z,72.00
2018-06-01T04:46:31.814Z,88.00
2018-06-01T04:47:32.881Z,80.00
2018-06-01T04:48:31.637Z,76.00
2018-06-01T04:49:31.640Z,72.00
2018-06-01T04:50:31.482Z,60.00
2018-06-01T04:51:31.447Z,56.00
2018-06-01T04:52:31.349Z,48.00
2018-06-01T04:53:31.347Z,44.00
2018-06-01T04:54:31.187Z,40.00
2018-06-01T04:55:31.172Z,32.00
2018-06-01T04:56:31.037Z,28.00
2018-06-01T04:57:31.025Z,28.00
2018-06-01T04:58:30.872Z,28.00
2018-06-01T04:59:30.870Z,24.00
2018-06-01T05:00:30.730Z,24.00
2018-06-01T05:01:30.695Z,28.00
2018-06-01T05:02:30.597Z,36.00
2018-06-01T05:03:30.625Z,48.00
2018-06-01T05:04:30.413Z,60.00
2018-06-01T05:05:30.398Z,72.00
2018-06-01T05:06:30.248Z,80.00
2018-06-01T05:09:12.326Z,80.00
2018-06-01T05:10:12.313Z,72.00
2018-06-01T05:11:12.147Z,72.00
2018-06-01T05:13:54.330Z,96.00
2018-06-01T05:14:54.328Z,100.00
2018-06-01T05:15:54.146Z,108.00
2018-06-01T05:16:54.132Z,112.00
2018-06-01T05:17:54.018Z,120.00
2018-06-01T05:18:54.053Z,128.00
2018-06-01T05:19:53.855Z,132.00
2018-06-01T05:20:53.868Z,144.00
2018-06-01T05:21:53.698Z,160.00
2018-06-01T05:22:53.663Z,172.00
2018-06-01T05:23:53.568Z,192.00
2018-06-01T05:24:53.791Z,204.00
2018-06-01T05:25:53.379Z,216.00
2018-06-01T05:28:35.321Z,272.00
2018-06-01T05:29:35.317Z,304.00
2018-06-01T05:30:35.153Z,348.00
2018-06-01T05:31:35.184Z,396.00
2018-06-01T05:32:35.013Z,440.00
2018-06-01T05:33:35.030Z,488.00
2018-06-01T05:34:34.861Z,536.00
2018-06-01T05:35:34.803Z,584.00
2018-06-01T05:36:34.685Z,640.00
2018-06-01T05:39:16.836Z,868.00
2018-06-01T05:40:16.840Z,956.00
2018-06-01T05:41:16.725Z,1052.00
2018-06-01T05:42:16.621Z,1156.00
2018-06-01T05:43:16.505Z,1264.00
2018-06-01T05:44:17.489Z,1448.00
2018-06-01T05:45:16.341Z,1576.00
2018-06-01T05:46:16.339Z,1720.00
2018-06-01T05:47:16.247Z,1884.00
2018-06-01T05:48:16.149Z,2004.00
2018-06-01T05:49:16.051Z,2028.00
2018-06-01T05:51:58.358Z,2340.00
2018-06-01T05:54:40.316Z,2816.00
2018-06-01T05:55:40.396Z,2976.00
2018-06-01T05:56:40.168Z,3032.00
2018-06-01T05:58:56.404Z,3036.00
2018-06-01T05:58:56.899Z,2980.00
2018-06-01T05:59:56.899Z,2900.00
2018-06-01T06:00:56.768Z,2844.00
2018-06-01T06:03:38.818Z,2636.00
2018-06-01T06:04:38.837Z,2520.00
2018-06-01T06:05:38.691Z,2396.00
2018-06-01T06:06:38.607Z,2356.00
2018-06-01T06:07:38.501Z,2400.00
2018-06-01T06:10:20.833Z,2804.00
2018-06-01T06:11:20.849Z,2908.00
2018-06-01T06:12:20.664Z,2988.00
2018-06-01T06:15:02.825Z,3192.00
2018-06-01T06:16:02.854Z,3068.00
2018-06-01T06:17:02.668Z,2768.00
2018-06-01T06:18:02.628Z,2396.00
2018-06-01T06:19:02.520Z,2064.00
2018-06-01T06:20:02.530Z,1824.00
2018-06-01T06:21:02.374Z,1616.00
2018-06-01T06:22:02.345Z,1448.00
2018-06-01T06:23:02.204Z,1300.00
2018-06-01T06:24:02.159Z,1168.00
2018-06-01T06:25:02.071Z,1060.00
2018-06-01T06:26:02.054Z,976.00
2018-06-01T06:27:01.911Z,912.00
2018-06-01T06:28:58.897Z,892.00
2018-06-01T06:29:01.734Z,888.00
2018-06-01T06:31:43.838Z,976.00
2018-06-01T06:32:43.816Z,1016.00
2018-06-01T06:33:43.689Z,1052.00
2018-06-01T06:34:43.691Z,1064.00
2018-06-01T06:35:43.510Z,1068.00
2018-06-01T06:38:25.951Z,1220.00
2018-06-01T06:39:25.798Z,1296.00
2018-06-01T06:40:25.668Z,1380.00
2018-06-01T06:41:25.722Z,1476.00
2018-06-01T06:42:25.568Z,1608.00
2018-06-01T06:43:25.556Z,1760.00
2018-06-01T06:44:25.362Z,1956.00
2018-06-01T06:45:25.332Z,2092.00
2018-06-01T06:46:25.214Z,2236.00
2018-06-01T06:49:07.372Z,2592.00
2018-06-01T06:50:07.342Z,2764.00
2018-06-01T06:51:07.196Z,2956.00
2018-06-01T06:53:49.351Z,3712.00
2018-06-01T06:54:49.352Z,3808.00
2018-06-01T06:55:49.199Z,3872.00
2018-06-01T06:56:49.170Z,3916.00
2018-06-01T06:57:49.038Z,4060.00
2018-06-01T06:58:49.085Z,4252.00
2018-06-01T06:59:48.881Z,4612.00
2018-06-01T07:00:48.918Z,5160.00
2018-06-01T07:01:48.713Z,5652.00
2018-06-01T07:02:48.710Z,6128.00
2018-06-01T07:03:48.589Z,6496.00
2018-06-01T07:04:48.593Z,6864.00
2018-06-01T07:05:48.416Z,7188.00
2018-06-01T07:06:48.400Z,7464.00
2018-06-01T07:07:48.248Z,7740.00
2018-06-01T07:08:48.240Z,8080.00
2018-06-01T07:09:48.083Z,8464.00
2018-06-01T07:10:48.169Z,8672.00
2018-06-01T07:11:47.983Z,8700.00
2018-06-01T07:12:47.945Z,8444.00
2018-06-01T07:13:47.800Z,7996.00
2018-06-01T07:14:47.741Z,7512.00
2018-06-01T07:15:47.640Z,7168.00
2018-06-01T07:16:47.671Z,7064.00
2018-06-01T07:17:47.474Z,7032.00
2018-06-01T07:18:47.523Z,6956.00
2018-06-01T07:19:47.334Z,6784.00
2018-06-01T07:20:47.270Z,6504.00
2018-06-01T07:21:47.174Z,6168.00
2018-06-01T07:22:47.173Z,5900.00
2018-06-01T07:23:47.001Z,5848.00
2018-06-01T07:24:46.994Z,6096.00
2018-06-01T07:25:46.850Z,6296.00
2018-06-01T07:26:46.825Z,6052.00
2018-06-01T07:27:46.704Z,5660.00
2018-06-01T07:29:03.432Z,5388.00
2018-06-01T07:29:46.552Z,5300.00
2018-06-01T07:30:46.753Z,5284.00
2018-06-01T07:31:46.388Z,5380.00
2018-06-01T07:34:28.366Z,5432.00
2018-06-01T07:35:28.319Z,5352.00
2018-06-01T07:36:28.185Z,5140.00
2018-06-01T07:37:28.243Z,4680.00
2018-06-01T07:38:28.029Z,4000.00
2018-06-01T07:39:28.078Z,3364.00
2018-06-01T07:40:27.911Z,2836.00
2018-06-01T07:41:27.845Z,2420.00
2018-06-01T07:42:27.725Z,2128.00
2018-06-01T07:43:27.760Z,2008.00
2018-06-01T07:44:27.570Z,2100.00
2018-06-01T07:45:27.621Z,2348.00
2018-06-01T07:46:27.419Z,2704.00
2018-06-01T07:47:27.380Z,3160.00
2018-06-01T07:48:27.260Z,3596.00
2018-06-01T07:49:27.295Z,4012.00
2018-06-01T07:50:27.147Z,4300.00
2018-06-01T07:51:27.097Z,4468.00
2018-06-01T07:52:26.957Z,4528.00
2018-06-01T07:55:09.378Z,3628.00
2018-06-01T07:56:09.361Z,3080.00
2018-06-01T07:57:09.212Z,2524.00
2018-06-01T07:59:05.941Z,2128.00
2018-06-01T07:59:09.062Z,1952.00
2018-06-01T08:00:09.038Z,1796.00
2018-06-01T08:01:08.910Z,1612.00
2018-06-01T08:02:08.843Z,1416.00
2018-06-01T08:03:08.744Z,1220.00
2018-06-01T08:04:08.769Z,996.00
2018-06-01T08:05:08.590Z,824.00
2018-06-01T08:06:09.623Z,712.00
2018-06-01T08:07:08.438Z,620.00
2018-06-01T08:08:08.470Z,484.00
2018-06-01T08:09:08.710Z,364.00
2018-06-01T08:10:08.275Z,264.00
2018-06-01T08:11:08.107Z,196.00
2018-06-01T08:12:08.217Z,172.00
2018-06-01T08:13:07.987Z,164.00
2018-06-01T08:15:49.887Z,212.00
2018-06-01T08:16:49.896Z,240.00
2018-06-01T08:17:49.729Z,196.00
2018-06-01T08:18:49.699Z,196.00
2018-06-01T08:19:49.546Z,252.00
2018-06-01T08:22:31.906Z,224.00
2018-06-01T08:23:31.810Z,244.00
2018-06-01T08:24:31.724Z,244.00
2018-06-01T08:25:31.731Z,204.00
2018-06-01T08:26:31.550Z,188.00
2018-06-01T08:27:32.593Z,196.00
2018-06-01T08:28:31.388Z,160.00
2018-06-01T08:29:31.359Z,152.00
2018-06-01T08:30:31.237Z,184.00
2018-06-01T08:31:31.256Z,240.00
2018-06-01T08:32:31.114Z,264.00
2018-06-01T08:33:31.069Z,284.00
2018-06-01T08:34:30.939Z,344.00
2018-06-01T08:37:12.874Z,736.00
2018-06-01T08:38:13.935Z,1076.00
2018-06-01T08:39:12.708Z,1300.00
2018-06-01T08:40:12.683Z,1324.00
2018-06-01T08:41:12.554Z,1336.00
2018-06-01T08:42:12.604Z,1320.00
2018-06-01T08:43:12.411Z,1316.00
2018-06-01T08:44:12.392Z,1244.00
2018-06-01T08:45:12.242Z,1168.00
2018-06-01T08:46:12.199Z,1148.00
2018-06-01T08:47:12.082Z,1204.00
2018-06-01T08:48:12.144Z,1360.00
2018-06-01T08:49:11.962Z,1544.00
2018-06-01T08:50:11.932Z,1664.00
2018-06-01T08:51:11.775Z,1644.00
2018-06-01T08:52:11.743Z,1624.00
2018-06-01T08:53:11.649Z,1532.00
2018-06-01T08:54:11.654Z,1404.00
2018-06-01T08:55:11.465Z,1304.00
2018-06-01T08:56:11.383Z,1296.00
2018-06-01T08:57:11.307Z,1304.00
2018-06-01T08:59:53.393Z,1556.00
2018-06-01T09:00:53.366Z,1856.00
2018-06-01T09:01:53.231Z,2192.00
2018-06-01T09:04:35.401Z,2568.00
2018-06-01T09:05:35.376Z,2656.00
2018-06-01T09:06:35.219Z,2704.00
2018-06-01T09:07:35.189Z,2640.00
2018-06-01T09:08:35.052Z,2696.00
2018-06-01T09:09:36.054Z,3052.00
2018-06-01T09:10:34.950Z,3752.00
2018-06-01T09:13:16.881Z,6040.00
2018-06-01T09:15:58.912Z,7032.00
2018-06-01T09:16:58.905Z,7384.00
2018-06-01T09:17:58.723Z,7812.00
2018-06-01T09:20:40.911Z,9364.00
2018-06-01T09:21:40.909Z,10228.00
2018-06-01T09:22:40.720Z,10944.00
2018-06-01T09:23:40.732Z,11468.00
2018-06-01T09:24:40.693Z,10180.00
2018-06-01T09:25:40.518Z,8300.00
2018-06-01T09:26:40.435Z,7604.00
2018-06-01T09:27:40.429Z,6720.00
2018-06-01T09:28:40.257Z,6132.00
2018-06-01T09:29:40.236Z,5872.00
2018-06-01T09:30:40.137Z,4924.00
2018-06-01T09:31:40.154Z,3952.00
2018-06-01T09:32:39.945Z,2608.00
2018-06-01T09:33:39.955Z,2088.00
2018-06-01T09:34:39.789Z,2340.00
2018-06-01T09:35:40.816Z,2608.00
2018-06-01T09:36:39.632Z,2852.00
2018-06-01T09:37:39.692Z,3228.00
2018-06-01T09:38:39.477Z,3364.00
2018-06-01T09:41:21.413Z,3812.00
2018-06-01T09:44:03.394Z,8272.00
2018-06-01T09:46:45.443Z,7668.00
2018-06-01T09:47:45.383Z,8148.00
2018-06-01T09:48:45.223Z,9136.00
2018-06-01T09:49:45.185Z,8140.00
2018-06-01T09:50:45.082Z,8256.00
2018-06-01T09:51:45.124Z,8344.00
2018-06-01T09:52:44.918Z,9700.00
2018-06-01T09:55:26.892Z,10712.00
2018-06-01T09:56:26.937Z,10284.00
2018-06-01T09:57:26.830Z,9704.00
2018-06-01T09:58:26.704Z,9872.00
2018-06-01T09:59:26.578Z,9576.00
2018-06-01T10:00:26.616Z,9460.00
2018-06-01T10:01:26.412Z,9584.00
2018-06-01T10:02:26.469Z,9284.00
2018-06-01T10:03:26.283Z,8796.00
2018-06-01T10:06:08.401Z,7824.00
2018-06-01T10:07:08.434Z,7836.00
2018-06-01T10:08:08.247Z,7456.00
2018-06-01T10:09:08.244Z,6916.00
2018-06-01T10:10:08.091Z,5752.00
2018-06-01T10:11:08.050Z,6520.00
2018-06-01T10:12:07.930Z,6316.00
2018-06-01T10:13:08.911Z,6304.00
2018-06-01T10:14:07.764Z,6448.00
2018-06-01T10:15:07.769Z,6796.00
2018-06-01T10:16:07.634Z,6860.00
2018-06-01T10:17:07.582Z,6824.00
2018-06-01T10:18:07.486Z,6620.00
2018-06-01T10:20:49.389Z,7044.00
2018-06-01T10:23:31.417Z,7096.00
2018-06-01T10:24:31.385Z,7460.00
2018-06-01T10:25:31.248Z,7448.00
2018-06-01T10:28:13.394Z,7020.00
2018-06-01T10:29:13.357Z,6740.00
2018-06-01T10:30:13.252Z,6232.00
2018-06-01T10:31:17.308Z,6088.00
2018-06-01T10:32:13.929Z,7240.00
2018-06-01T10:33:15.184Z,7212.00
2018-06-01T10:34:12.959Z,6028.00
2018-06-01T10:36:58.893Z,6412.00
2018-06-01T10:37:58.834Z,7548.00
2018-06-01T10:38:58.795Z,6204.00
2018-06-01T10:41:40.912Z,6844.00
2018-06-01T10:44:22.916Z,8296.00
2018-06-01T10:45:23.042Z,6568.00
2018-06-01T10:46:22.755Z,7416.00
2018-06-01T10:49:04.929Z,7884.00
2018-06-01T10:50:04.940Z,6728.00
2018-06-01T10:51:04.754Z,6064.00
2018-06-01T10:52:04.743Z,7280.00
2018-06-01T10:53:04.605Z,6536.00
2018-06-01T10:54:04.577Z,7212.00
2018-06-01T10:55:04.460Z,6364.00
2018-06-01T10:56:04.456Z,5712.00
2018-06-01T10:57:04.293Z,5928.00
2018-06-01T10:58:04.292Z,5436.00
2018-06-01T10:59:04.139Z,6888.00
2018-06-01T11:00:04.084Z,7912.00
2018-06-01T11:01:03.995Z,7156.00
2018-06-01T11:02:03.988Z,8656.00
2018-06-01T11:03:03.838Z,11536.00
2018-06-01T11:04:03.803Z,12744.00
2018-06-01T11:05:03.708Z,14716.00
2018-06-01T11:07:45.929Z,12452.00
2018-06-01T11:10:27.935Z,15116.00
2018-06-01T11:11:27.945Z,15628.00
2018-06-01T11:12:27.758Z,16572.00
2018-06-01T11:13:27.717Z,14824.00
2018-06-01T11:14:27.602Z,15352.00
2018-06-01T11:15:27.625Z,15588.00
2018-06-01T11:16:27.476Z,15896.00
2018-06-01T11:17:27.440Z,11688.00
2018-06-01T11:18:27.313Z,9928.00
2018-06-01T11:21:09.427Z,13260.00
2018-06-01T11:22:09.447Z,13484.00
2018-06-01T11:23:09.270Z,15616.00
2018-06-01T11:24:09.256Z,14868.00
2018-06-01T11:25:09.109Z,12744.00
2018-06-01T11:26:09.452Z,11776.00
2018-06-01T11:27:09.018Z,14668.00
2018-06-01T11:28:08.976Z,14572.00
2018-06-01T11:29:08.804Z,18624.00
2018-06-01T11:30:08.865Z,13260.00
2018-06-01T11:31:08.710Z,14732.00
2018-06-01T11:32:08.699Z,11560.00
2018-06-01T11:33:08.599Z,13876.00
2018-06-01T11:34:08.517Z,14736.00
2018-06-01T11:35:08.345Z,14764.00
2018-06-01T11:36:08.311Z,17184.00
2018-06-01T11:37:08.224Z,26304.00
2018-06-01T11:38:08.230Z,18112.00
2018-06-01T11:39:08.070Z,12984.00
2018-06-01T11:40:08.047Z,12508.00
2018-06-01T11:41:07.916Z,16608.00
2018-06-01T11:42:07.904Z,15056.00
2018-06-01T11:43:07.745Z,15852.00
2018-06-01T11:45:49.924Z,11840.00
2018-06-01T11:46:49.990Z,11856.00
2018-06-01T11:47:49.768Z,11012.00
2018-06-01T11:48:50.825Z,18240.00
2018-06-01T11:49:49.629Z,11480.00
2018-06-01T11:50:49.685Z,10400.00
2018-06-01T11:51:49.469Z,7448.00
2018-06-01T11:52:49.479Z,6272.00
2018-06-01T11:53:49.326Z,5148.00
2018-06-01T11:54:49.330Z,8936.00
2018-06-01T11:55:49.159Z,9596.00
2018-06-01T11:56:49.197Z,9860.00
2018-06-01T11:57:49.021Z,8964.00
2018-06-01T11:58:49.005Z,10076.00
2018-06-01T11:59:48.881Z,10076.00
2018-06-01T12:00:48.825Z,7416.00
2018-06-01T12:01:48.730Z,7448.00
2018-06-01T12:02:48.724Z,9236.00
2018-06-01T12:03:48.580Z,7996.00
2018-06-01T12:04:48.574Z,9384.00
2018-06-01T12:05:48.458Z,5876.00
2018-06-01T12:06:48.441Z,7644.00
2018-06-01T12:07:48.262Z,10112.00
2018-06-01T12:08:48.258Z,11272.00
2018-06-01T12:09:48.125Z,10472.00
2018-06-01T12:10:48.134Z,12620.00
2018-06-01T12:14:56.462Z,13012.00
2018-06-01T12:15:56.387Z,12308.00
2018-06-01T12:16:56.283Z,8948.00
2018-06-01T12:19:38.467Z,9628.00
2018-06-01T12:20:38.473Z,9520.00
2018-06-01T12:21:38.287Z,7828.00
2018-06-01T12:24:20.448Z,5900.00
2018-06-01T12:25:20.451Z,7752.00
2018-06-01T12:26:20.285Z,8176.00
2018-06-01T12:27:20.424Z,7356.00
2018-06-01T12:28:20.133Z,7184.00
2018-06-01T12:29:20.157Z,6528.00
2018-06-01T12:30:20.005Z,5184.00
2018-06-01T12:31:19.946Z,5124.00
2018-06-01T12:32:19.828Z,4780.00
2018-06-01T12:33:19.880Z,5340.00
2018-06-01T12:34:19.736Z,5940.00
2018-06-01T12:35:19.653Z,4620.00
2018-06-01T12:36:19.555Z,4144.00
2018-06-01T12:37:19.568Z,3796.00
2018-06-01T12:38:19.367Z,3788.00
2018-06-01T12:39:19.379Z,3552.00
2018-06-01T12:40:19.225Z,4004.00
2018-06-01T12:41:19.231Z,4932.00
2018-06-01T12:42:19.097Z,3964.00
2018-06-01T12:43:19.096Z,4000.00
2018-06-01T12:44:18.951Z,4432.00
2018-06-01T12:45:18.901Z,4368.00
2018-06-01T12:46:18.781Z,4960.00
2018-06-01T12:47:18.821Z,4896.00
2018-06-01T12:48:18.615Z,4228.00
2018-06-01T12:49:18.628Z,3980.00
2018-06-01T12:50:18.468Z,3876.00
2018-06-01T12:51:18.477Z,3604.00
2018-06-01T12:52:18.322Z,3704.00
2018-06-01T12:53:18.341Z,3920.00
2018-06-01T12:54:18.167Z,3388.00
2018-06-01T12:55:18.147Z,2968.00
2018-06-01T12:56:18.022Z,3232.00
2018-06-01T12:57:17.988Z,3640.00
2018-06-01T12:58:17.868Z,3636.00
2018-06-01T12:59:17.879Z,3668.00
2018-06-01T13:00:17.693Z,4248.00
2018-06-01T13:01:17.683Z,3668.00
2018-06-01T13:02:17.555Z,3720.00
2018-06-01T13:03:17.597Z,2980.00
2018-06-01T13:04:17.392Z,3296.00
2018-06-01T13:05:17.400Z,2840.00
2018-06-01T13:06:17.251Z,3028.00
2018-06-01T13:07:17.247Z,2924.00
2018-06-01T13:08:17.075Z,2928.00
2018-06-01T13:10:58.950Z,3468.00
2018-06-01T13:11:58.947Z,3636.00
2018-06-01T13:12:58.796Z,3700.00
2018-06-01T13:13:58.827Z,3876.00
2018-06-01T13:14:58.700Z,4228.00
2018-06-01T13:15:58.636Z,4528.00
2018-06-01T13:16:58.535Z,4752.00
2018-06-01T13:17:58.487Z,4976.00
2018-06-01T13:18:58.344Z,4820.00
2018-06-01T13:19:58.352Z,4876.00
2018-06-01T13:20:58.194Z,4996.00
2018-06-01T13:21:58.230Z,5276.00
2018-06-01T13:22:58.072Z,5508.00
2018-06-01T13:23:58.078Z,6088.00
2018-06-01T13:24:57.871Z,6648.00
2018-06-01T13:25:57.876Z,7160.00
2018-06-01T13:26:57.719Z,7408.00
2018-06-01T13:27:58.751Z,6180.00
2018-06-01T13:28:57.567Z,5300.00
2018-06-01T13:29:57.694Z,4924.00
2018-06-01T13:30:57.426Z,3584.00
2018-06-01T13:31:57.404Z,4840.00
2018-06-01T13:32:57.273Z,5600.00
2018-06-01T13:33:57.311Z,6904.00
2018-06-01T13:34:57.104Z,6788.00
2018-06-01T13:35:57.126Z,5440.00
2018-06-01T13:36:56.968Z,4636.00
2018-06-01T13:37:56.980Z,4740.00
2018-06-01T13:38:56.818Z,3940.00
2018-06-01T13:39:56.840Z,3644.00
2018-06-01T13:40:56.657Z,3424.00
2018-06-01T13:41:56.696Z,3796.00
2018-06-01T13:42:56.530Z,4392.00
2018-06-01T13:43:56.454Z,2888.00
2018-06-01T13:44:56.348Z,2008.00
2018-06-01T13:45:56.283Z,2200.00
2018-06-01T13:46:56.259Z,2048.00
2018-06-01T13:47:56.181Z,1996.00
2018-06-01T13:48:56.044Z,3252.00
2018-06-01T13:49:56.096Z,3796.00
2018-06-01T13:50:55.884Z,4216.00
2018-06-01T13:51:55.899Z,5252.00
2018-06-01T13:52:55.905Z,6212.00
2018-06-01T13:53:55.754Z,6612.00
2018-06-01T13:54:55.604Z,7140.00
2018-06-01T13:55:55.617Z,6716.00
2018-06-01T13:56:55.432Z,6116.00
2018-06-01T13:59:37.565Z,5312.00
2018-06-01T14:02:19.459Z,4648.00
2018-06-01T14:03:20.475Z,4920.00
2018-06-01T14:04:19.329Z,3980.00
2018-06-01T14:05:19.324Z,3220.00
2018-06-01T14:06:19.210Z,3124.00
2018-06-01T14:07:19.153Z,2288.00
2018-06-01T14:08:19.012Z,2224.00
2018-06-01T14:09:18.981Z,2620.00
2018-06-01T14:10:18.860Z,2616.00
2018-06-01T14:11:18.875Z,3716.00
2018-06-01T14:12:18.703Z,4868.00
2018-06-01T14:13:18.680Z,3568.00
2018-06-01T14:14:18.584Z,2696.00
2018-06-01T14:15:18.584Z,3536.00
2018-06-01T14:16:18.401Z,4012.00
2018-06-01T14:17:18.391Z,2664.00
2018-06-01T14:18:18.243Z,1740.00
2018-06-01T14:19:19.271Z,2932.00
2018-06-01T14:20:18.117Z,5452.00
2018-06-01T14:21:18.105Z,7420.00
2018-06-01T14:22:17.929Z,6384.00
2018-06-01T14:25:00.004Z,5776.00
2018-06-01T14:26:00.010Z,6568.00
2018-06-01T14:26:59.843Z,6404.00
2018-06-01T14:27:59.820Z,4028.00